createdAt,value
2022-10-11T00:00:01.205Z,97.78
2022-10-11T00:02:27.835Z,97.29
2022-10-11T00:04:54.709Z,97.44
2022-10-11T00:07:21.309Z,97.51
2022-10-11T00:09:47.864Z,99.05
2022-10-11T00:12:14.738Z,98.88
2022-10-11T00:14:41.494Z,99.84
2022-10-11T00:17:08.127Z,100.00
2022-10-11T00:19:34.934Z,100.00
2022-10-11T00:22:01.612Z,100.00
2022-10-11T00:24:28.242Z,100.00
2022-10-11T00:26:54.817Z,100.00
2022-10-11T00:29:21.402Z,100.00
2022-10-11T00:31:48.057Z,100.00
2022-10-11T00:34:14.687Z,100.00
2022-10-11T00:36:41.383Z,100.00
2022-10-11T00:39:07.980Z,100.00
2022-10-11T00:41:34.611Z,100.00
2022-10-11T00:44:13.259Z,100.00
2022-10-11T00:46:40.762Z,100.00
2022-10-11T00:49:30.456Z,100.00
2022-10-11T00:52:12.165Z,100.00
2022-10-11T00:54:39.668Z,100.00
2022-10-11T00:57:08.075Z,100.00
2022-10-11T00:59:39.967Z,100.00
2022-10-11T01:02:06.605Z,100.00
2022-10-11T01:04:33.741Z,100.00
2022-10-11T01:07:00.385Z,100.00
2022-10-11T01:09:27.033Z,100.00
2022-10-11T01:11:54.077Z,100.00
2022-10-11T01:14:34.438Z,100.00
2022-10-11T01:17:24.155Z,100.00
2022-10-11T01:20:15.233Z,100.00
2022-10-11T01:23:03.536Z,100.00
2022-10-11T01:25:57.289Z,100.00
2022-10-11T01:28:39.026Z,100.00
2022-10-11T01:31:43.798Z,100.00
2022-10-11T01:34:14.038Z,100.00
2022-10-11T01:36:45.252Z,100.00
2022-10-11T01:39:48.056Z,100.00
2022-10-11T01:42:14.777Z,100.00
2022-10-11T01:44:42.129Z,100.00
2022-10-11T01:47:08.761Z,100.00
2022-10-11T01:49:35.428Z,100.00
2022-10-11T01:52:04.762Z,100.00
2022-10-11T01:54:49.929Z,100.00
2022-10-11T01:57:55.146Z,100.00
2022-10-11T02:00:24.129Z,100.00
2022-10-11T02:03:05.880Z,100.00
2022-10-11T02:06:04.236Z,100.00
2022-10-11T02:08:38.932Z,100.00
2022-10-11T02:11:30.521Z,100.00
2022-10-11T02:14:16.738Z,100.00
2022-10-11T02:16:56.351Z,100.00
2022-10-11T02:19:26.430Z,100.00
2022-10-11T02:21:54.913Z,100.00
2022-10-11T02:24:25.137Z,100.00
2022-10-11T02:26:52.512Z,100.00
2022-10-11T02:29:19.093Z,100.00
2022-10-11T02:31:45.724Z,100.00
2022-10-11T02:34:19.056Z,100.00
2022-10-11T02:36:59.335Z,100.00
2022-10-11T02:39:38.239Z,100.00
2022-10-11T02:42:05.752Z,100.00
2022-10-11T02:44:38.302Z,100.00
2022-10-11T02:47:04.971Z,100.00
2022-10-11T02:49:31.711Z,100.00
2022-10-11T02:51:58.666Z,100.00
2022-10-11T02:54:25.638Z,100.00
2022-10-11T02:56:52.364Z,100.00
2022-10-11T02:59:18.963Z,100.00
2022-10-11T03:01:45.636Z,100.00
2022-10-11T03:04:12.548Z,100.00
2022-10-11T03:06:39.180Z,100.00
2022-10-11T03:09:05.797Z,100.00
2022-10-11T03:11:32.639Z,100.00
2022-10-11T03:13:59.279Z,100.00
2022-10-11T03:16:26.197Z,100.00
2022-10-11T03:18:52.833Z,100.00
2022-10-11T03:21:19.449Z,100.00
2022-10-11T03:23:46.067Z,100.00
2022-10-11T03:26:12.706Z,100.00
2022-10-11T03:28:39.400Z,100.00
2022-10-11T03:31:06.165Z,100.00
2022-10-11T03:33:32.753Z,100.00
2022-10-11T03:35:59.390Z,100.00
2022-10-11T03:38:25.996Z,100.00
2022-10-11T03:40:52.574Z,100.00
2022-10-11T03:43:19.215Z,100.00
2022-10-11T03:45:45.773Z,100.00
2022-10-11T03:48:12.406Z,100.00
2022-10-11T03:50:39.298Z,100.00
2022-10-11T03:53:06.179Z,100.00
2022-10-11T03:55:32.850Z,100.00
2022-10-11T03:57:59.499Z,100.00
2022-10-11T04:00:27.072Z,100.00
2022-10-11T04:02:53.637Z,100.00
2022-10-11T04:05:20.300Z,100.00
2022-10-11T04:07:46.905Z,100.00
2022-10-11T04:10:13.540Z,100.00
2022-10-11T04:12:40.149Z,100.00
2022-10-11T04:15:07.284Z,100.00
2022-10-11T04:17:33.958Z,100.00
2022-10-11T04:20:01.773Z,100.00
2022-10-11T04:22:28.367Z,100.00
2022-10-11T04:24:54.931Z,100.00
2022-10-11T04:27:21.605Z,100.00
2022-10-11T04:29:48.238Z,100.00
2022-10-11T04:32:14.842Z,100.00
2022-10-11T04:34:41.649Z,100.00
2022-10-11T04:37:08.235Z,100.00
2022-10-11T04:39:34.792Z,100.00
2022-10-11T04:42:01.612Z,100.00
2022-10-11T04:44:28.288Z,100.00
2022-10-11T04:46:54.887Z,100.00
2022-10-11T04:49:23.440Z,100.00
2022-10-11T04:51:50.018Z,100.00
2022-10-11T04:54:16.663Z,100.00
2022-10-11T04:56:43.348Z,100.00
2022-10-11T04:59:09.974Z,100.00
2022-10-11T05:01:36.843Z,100.00
2022-10-11T05:04:03.679Z,100.00
2022-10-11T05:06:30.340Z,100.00
2022-10-11T05:08:57.032Z,100.00
2022-10-11T05:11:23.676Z,100.00
2022-10-11T05:13:50.232Z,100.00
2022-10-11T05:16:17.515Z,100.00
2022-10-11T05:18:44.688Z,100.00
2022-10-11T05:21:19.097Z,100.00
2022-10-11T05:23:49.771Z,100.00
2022-10-11T05:26:16.929Z,100.00
2022-10-11T05:28:43.713Z,100.00
2022-10-11T05:31:10.639Z,100.00
2022-10-11T05:33:37.260Z,100.00
2022-10-11T05:36:04.675Z,100.00
2022-10-11T05:38:31.547Z,100.00
2022-10-11T05:41:04.387Z,100.00
2022-10-11T05:43:31.046Z,100.00
2022-10-11T05:45:57.748Z,100.00
2022-10-11T05:48:24.470Z,100.00
2022-10-11T05:50:51.086Z,100.00
2022-10-11T05:53:17.710Z,100.00
2022-10-11T05:55:44.336Z,100.00
2022-10-11T05:58:13.113Z,100.00
2022-10-11T06:00:39.763Z,100.00
2022-10-11T06:03:06.831Z,100.00
2022-10-11T06:05:34.357Z,100.00
2022-10-11T06:08:01.249Z,100.00
2022-10-11T06:10:28.144Z,100.00
2022-10-11T06:12:54.892Z,100.00
2022-10-11T06:15:21.518Z,100.00
2022-10-11T06:17:48.191Z,100.00
2022-10-11T06:20:14.846Z,100.00
2022-10-11T06:22:41.612Z,100.00
2022-10-11T06:25:08.459Z,100.00
2022-10-11T06:27:35.740Z,100.00
2022-10-11T06:30:02.420Z,100.00
2022-10-11T06:32:29.507Z,100.00
2022-10-11T06:34:56.144Z,100.00
2022-10-11T06:37:22.770Z,100.00
2022-10-11T06:39:49.932Z,100.00
2022-10-11T06:42:16.801Z,100.00
2022-10-11T06:44:43.482Z,100.00
2022-10-11T06:47:10.072Z,100.00
2022-10-11T06:49:36.961Z,100.00
2022-10-11T06:52:03.622Z,100.00
2022-10-11T06:54:30.220Z,100.00
2022-10-11T06:56:56.726Z,100.00
2022-10-11T06:59:23.386Z,100.00
2022-10-11T07:01:50.096Z,100.00
2022-10-11T07:04:16.714Z,100.00
2022-10-11T07:06:43.436Z,100.00
2022-10-11T07:09:10.089Z,100.00
2022-10-11T07:11:36.689Z,100.00
2022-10-11T07:14:04.739Z,100.00
2022-10-11T07:16:31.646Z,100.00
2022-10-11T07:19:00.788Z,100.00
2022-10-11T07:21:28.298Z,100.00
2022-10-11T07:23:54.900Z,100.00
2022-10-11T07:26:21.508Z,100.00
2022-10-11T07:28:48.959Z,100.00
2022-10-11T07:31:18.053Z,100.00
2022-10-11T07:33:44.645Z,100.00
2022-10-11T07:36:11.674Z,100.00
2022-10-11T07:38:42.570Z,100.00
2022-10-11T07:41:09.315Z,100.00
2022-10-11T07:43:36.609Z,100.00
2022-10-11T07:46:03.726Z,100.00
2022-10-11T07:48:33.834Z,100.00
2022-10-11T07:51:20.596Z,100.00
2022-10-11T07:53:48.651Z,100.00
2022-10-11T07:56:17.739Z,100.00
2022-10-11T07:58:44.585Z,100.00
2022-10-11T08:01:11.266Z,100.00
2022-10-11T08:03:38.211Z,100.00
2022-10-11T08:06:06.848Z,100.00
2022-10-11T08:08:33.795Z,100.00
2022-10-11T08:11:03.633Z,100.00
2022-10-11T08:13:30.291Z,100.00
2022-10-11T08:15:58.495Z,100.00
2022-10-11T08:18:25.209Z,100.00
2022-10-11T08:20:52.490Z,100.00
2022-10-11T08:23:19.177Z,100.00
2022-10-11T08:25:47.578Z,100.00
2022-10-11T08:28:14.446Z,100.00
2022-10-11T08:30:43.249Z,100.00
2022-10-11T08:33:09.945Z,100.00
2022-10-11T08:35:36.550Z,100.00
2022-10-11T08:38:03.193Z,100.00
2022-10-11T08:40:34.380Z,100.00
2022-10-11T08:43:06.721Z,100.00
2022-10-11T08:45:38.434Z,100.00
2022-10-11T08:48:16.021Z,100.00
2022-10-11T08:50:43.669Z,100.00
2022-10-11T08:53:42.754Z,100.00
2022-10-11T08:56:11.779Z,100.00
2022-10-11T08:58:45.847Z,100.00
2022-10-11T09:01:16.901Z,100.00
2022-10-11T09:03:44.765Z,100.00
2022-10-11T09:06:23.416Z,100.00
2022-10-11T09:08:56.511Z,99.80
2022-10-11T09:11:41.898Z,99.21
2022-10-11T09:14:16.396Z,98.55
2022-10-11T09:17:01.340Z,98.36
2022-10-11T09:19:53.237Z,98.66
2022-10-11T09:22:37.810Z,99.33
2022-10-11T09:25:25.444Z,99.49
2022-10-11T09:28:10.966Z,99.68
2022-10-11T09:30:46.169Z,99.60
2022-10-11T09:33:18.770Z,99.10
2022-10-11T09:35:50.994Z,99.39
2022-10-11T09:38:26.569Z,99.98
2022-10-11T09:41:08.355Z,99.23
2022-10-11T09:43:34.985Z,98.68
2022-10-11T09:46:01.621Z,97.75
2022-10-11T09:48:38.338Z,96.93
2022-10-11T09:51:06.550Z,95.72
2022-10-11T09:53:53.358Z,94.65
2022-10-11T09:56:20.030Z,93.84
2022-10-11T09:58:46.656Z,92.66
2022-10-11T10:01:22.918Z,92.92
2022-10-11T10:03:49.770Z,92.41
2022-10-11T10:06:24.179Z,92.42
2022-10-11T10:08:50.952Z,91.42
2022-10-11T10:11:17.985Z,92.19
2022-10-11T10:13:48.671Z,92.99
2022-10-11T10:16:41.462Z,93.95
2022-10-11T10:19:18.304Z,93.99
2022-10-11T10:21:46.897Z,94.46
2022-10-11T10:24:35.473Z,94.85
2022-10-11T10:27:07.996Z,95.05
2022-10-11T10:29:34.661Z,95.06
2022-10-11T10:32:14.185Z,95.09
2022-10-11T10:34:58.902Z,94.64
2022-10-11T10:37:30.288Z,95.02
2022-10-11T10:40:14.479Z,95.52
2022-10-11T10:42:41.130Z,93.22
2022-10-11T10:45:12.194Z,93.99
2022-10-11T10:47:42.586Z,93.59
2022-10-11T10:53:15.746Z,93.20
2022-10-11T10:55:46.033Z,92.92
2022-10-11T10:58:34.224Z,92.56
2022-10-11T11:01:21.369Z,92.16
2022-10-11T11:04:14.001Z,91.71
2022-10-11T11:07:04.523Z,90.39
2022-10-11T11:09:49.528Z,89.62
2022-10-11T11:12:41.100Z,89.54
2022-10-11T11:15:14.930Z,89.74
2022-10-11T11:17:44.437Z,89.02
2022-10-11T11:20:42.068Z,88.12
2022-10-11T11:23:22.462Z,89.77
2022-10-11T11:26:04.459Z,87.80
2022-10-11T11:28:53.523Z,89.19
2022-10-11T11:31:43.916Z,87.23
2022-10-11T11:34:20.164Z,84.28
2022-10-11T11:36:56.429Z,83.95
2022-10-11T11:39:47.186Z,84.54
2022-10-11T11:42:22.550Z,86.36
2022-10-11T11:44:50.166Z,85.04
2022-10-11T11:47:37.730Z,84.25
2022-10-11T11:50:23.238Z,86.69
2022-10-11T11:52:55.438Z,85.66
2022-10-11T11:55:48.130Z,86.24
2022-10-11T11:58:27.146Z,86.57
2022-10-11T12:01:07.698Z,86.94
2022-10-11T12:03:41.651Z,88.10
2022-10-11T12:06:15.131Z,87.60
2022-10-11T12:09:01.412Z,87.42
2022-10-11T12:11:38.840Z,85.33
2022-10-11T12:14:21.655Z,84.87
2022-10-11T12:17:12.461Z,84.90
2022-10-11T12:19:41.205Z,84.38
2022-10-11T12:22:35.725Z,84.71
2022-10-11T12:25:08.458Z,84.22
2022-10-11T12:27:44.907Z,83.57
2022-10-11T12:30:43.115Z,83.05
2022-10-11T12:33:18.567Z,83.59
2022-10-11T12:35:51.457Z,85.20
2022-10-11T12:38:24.967Z,85.89
2022-10-11T12:41:15.070Z,86.20
2022-10-11T12:43:48.137Z,85.00
2022-10-11T12:46:29.793Z,85.78
2022-10-11T12:48:58.064Z,86.60
2022-10-11T12:51:27.889Z,86.75
2022-10-11T12:54:29.105Z,85.72
2022-10-11T12:57:11.860Z,85.81
2022-10-11T12:59:44.690Z,87.06
2022-10-11T13:02:28.687Z,86.07
2022-10-11T13:05:33.053Z,84.83
2022-10-11T13:08:02.503Z,84.97
2022-10-11T13:10:34.626Z,85.15
2022-10-11T13:13:01.717Z,84.29
2022-10-11T13:15:28.512Z,86.12
2022-10-11T13:17:59.465Z,86.03
2022-10-11T13:20:28.774Z,84.14
2022-10-11T13:22:55.573Z,84.88
2022-10-11T13:25:26.829Z,82.25
2022-10-11T13:27:54.807Z,83.25
2022-10-11T13:30:25.529Z,83.83
2022-10-11T13:32:52.550Z,83.07
2022-10-11T13:35:36.092Z,84.84
2022-10-11T13:38:03.161Z,84.21
2022-10-11T13:40:30.904Z,83.53
2022-10-11T13:42:57.593Z,84.40
2022-10-11T13:45:25.361Z,85.14
2022-10-11T13:47:52.650Z,85.85
2022-10-11T13:50:20.958Z,85.11
2022-10-11T13:53:10.766Z,84.33
2022-10-11T13:55:53.235Z,85.26
2022-10-11T13:58:29.773Z,84.10
2022-10-11T14:00:57.720Z,86.40
2022-10-11T14:03:27.907Z,85.85
2022-10-11T14:05:56.222Z,85.23
2022-10-11T14:08:44.759Z,84.30
2022-10-11T14:11:11.956Z,85.11
2022-10-11T14:13:42.928Z,86.54
2022-10-11T14:16:18.696Z,85.20
2022-10-11T14:19:00.934Z,85.92
2022-10-11T14:21:45.876Z,85.15
2022-10-11T14:24:13.134Z,84.60
2022-10-11T14:26:41.388Z,84.89
2022-10-11T14:29:12.930Z,85.61
2022-10-11T14:31:42.136Z,85.23
2022-10-11T14:34:18.045Z,86.01
2022-10-11T14:36:44.825Z,86.94
2022-10-11T14:39:19.125Z,86.14
2022-10-11T14:41:45.931Z,84.93
2022-10-11T14:44:12.861Z,86.30
2022-10-11T14:46:39.599Z,87.19
2022-10-11T14:49:27.109Z,88.03
2022-10-11T14:51:54.548Z,87.60
2022-10-11T14:54:21.898Z,87.67
2022-10-11T14:56:49.368Z,87.61
2022-10-11T14:59:18.273Z,87.74
2022-10-11T15:01:44.971Z,87.77
2022-10-11T15:04:11.711Z,87.79
2022-10-11T15:06:39.722Z,87.64
2022-10-11T15:09:06.658Z,88.14
2022-10-11T15:11:35.573Z,88.65
2022-10-11T15:14:02.068Z,89.02
2022-10-11T15:16:29.356Z,88.27
2022-10-11T15:18:56.161Z,88.22
2022-10-11T15:21:24.821Z,89.17
2022-10-11T15:23:51.942Z,89.76
2022-10-11T15:26:20.637Z,90.60
2022-10-11T15:28:47.483Z,91.05
2022-10-11T15:31:14.185Z,91.49
2022-10-11T15:33:40.889Z,91.46
2022-10-11T15:36:09.325Z,92.09
2022-10-11T15:38:36.284Z,92.10
2022-10-11T15:41:03.225Z,92.45
2022-10-11T15:43:29.870Z,92.62
2022-10-11T15:45:56.783Z,92.98
2022-10-11T15:48:24.873Z,93.32
2022-10-11T15:50:51.652Z,93.72
2022-10-11T15:53:22.068Z,93.84
2022-10-11T15:55:50.177Z,93.86
2022-10-11T15:58:21.164Z,94.75
2022-10-11T16:00:49.080Z,94.71
2022-10-11T16:03:16.125Z,94.50
2022-10-11T16:05:42.846Z,95.25
2022-10-11T16:08:09.787Z,94.63
2022-10-11T16:10:36.498Z,95.05
2022-10-11T16:13:03.282Z,94.81
2022-10-11T16:15:29.927Z,95.08
2022-10-11T16:17:56.528Z,95.93
2022-10-11T16:20:23.844Z,95.62
2022-10-11T16:22:50.749Z,95.88
2022-10-11T16:25:17.326Z,95.62
2022-10-11T16:27:44.034Z,96.14
2022-10-11T16:30:12.024Z,95.97
2022-10-11T16:32:39.093Z,95.66
2022-10-11T16:35:06.244Z,95.93
2022-10-11T16:37:32.806Z,95.84
2022-10-11T16:39:59.451Z,96.36
2022-10-11T16:42:26.093Z,96.48
2022-10-11T16:44:52.806Z,96.27
2022-10-11T16:47:19.443Z,97.10
2022-10-11T16:49:46.222Z,96.93
2022-10-11T16:52:12.991Z,96.25
2022-10-11T16:54:42.269Z,96.63
2022-10-11T16:57:08.968Z,96.76
2022-10-11T16:59:35.632Z,96.43
2022-10-11T17:02:02.174Z,96.62
2022-10-11T17:04:29.009Z,97.04
2022-10-11T17:06:55.620Z,97.26
2022-10-11T17:09:22.227Z,97.07
2022-10-11T17:11:50.600Z,97.54
2022-10-11T17:14:17.329Z,97.74
2022-10-11T17:16:44.293Z,97.98
2022-10-11T17:19:12.328Z,98.58
2022-10-11T17:21:39.287Z,97.14
2022-10-11T17:24:06.344Z,97.40
2022-10-11T17:26:33.064Z,96.76
2022-10-11T17:28:59.780Z,96.43
2022-10-11T17:31:27.061Z,96.96
2022-10-11T17:33:54.029Z,97.47
2022-10-11T17:36:21.592Z,97.57
2022-10-11T17:38:48.670Z,97.87
2022-10-11T17:41:15.463Z,97.39
2022-10-11T17:43:42.079Z,97.71
2022-10-11T17:46:09.703Z,97.54
2022-10-11T17:48:36.499Z,97.35
2022-10-11T17:51:10.680Z,97.01
2022-10-11T17:53:37.551Z,97.05
2022-10-11T17:56:09.997Z,96.94
2022-10-11T17:58:36.671Z,96.97
2022-10-11T18:01:05.222Z,97.22
2022-10-11T18:03:32.337Z,97.62
2022-10-11T18:05:58.884Z,97.21
2022-10-11T18:08:25.531Z,97.07
2022-10-11T18:10:52.187Z,96.16
2022-10-11T18:13:19.543Z,97.30
2022-10-11T18:15:49.125Z,97.83
2022-10-11T18:18:19.445Z,96.94
2022-10-11T18:20:49.160Z,96.63
2022-10-11T18:23:16.892Z,96.90
2022-10-11T18:25:47.882Z,96.70
2022-10-11T18:28:14.652Z,96.90
2022-10-11T18:30:42.781Z,96.81
2022-10-11T18:33:11.878Z,96.72
2022-10-11T18:35:38.442Z,98.03
2022-10-11T18:38:05.248Z,97.97
2022-10-11T18:40:32.021Z,96.88
2022-10-11T18:42:59.706Z,97.48
2022-10-11T18:45:26.478Z,96.60
2022-10-11T18:47:53.111Z,97.10
2022-10-11T18:50:19.662Z,97.72
2022-10-11T18:52:46.338Z,97.63
2022-10-11T18:55:12.970Z,97.56
2022-10-11T18:57:39.612Z,97.75
2022-10-11T19:00:16.864Z,96.87
2022-10-11T19:02:53.266Z,97.16
2022-10-11T19:05:19.796Z,97.50
2022-10-11T19:07:46.430Z,97.52
2022-10-11T19:10:13.032Z,97.63
2022-10-11T19:12:39.620Z,97.36
2022-10-11T19:15:06.443Z,97.14
2022-10-11T19:17:33.086Z,97.99
2022-10-11T19:19:59.721Z,97.04
2022-10-11T19:22:26.319Z,96.36
2022-10-11T19:24:52.870Z,96.19
2022-10-11T19:27:19.529Z,96.32
2022-10-11T19:29:47.379Z,97.04
2022-10-11T19:32:14.045Z,97.27
2022-10-11T19:34:40.709Z,97.32
2022-10-11T19:37:07.395Z,97.36
2022-10-11T19:39:34.058Z,96.56
2022-10-11T19:42:01.379Z,96.42
2022-10-11T19:44:27.984Z,97.53
2022-10-11T19:46:54.697Z,96.83
2022-10-11T19:49:22.089Z,97.38
2022-10-11T19:51:48.617Z,96.18
2022-10-11T19:54:15.353Z,96.22
2022-10-11T19:56:42.074Z,97.05
2022-10-11T19:59:08.708Z,96.63
2022-10-11T20:01:35.681Z,96.24
2022-10-11T20:04:06.532Z,96.70
2022-10-11T20:06:38.098Z,96.96
2022-10-11T20:09:28.128Z,97.47
2022-10-11T20:11:53.042Z,97.83
2022-10-11T20:14:19.737Z,97.39
2022-10-11T20:16:46.324Z,97.50
2022-10-11T20:19:12.968Z,97.99
2022-10-11T20:21:39.556Z,97.54
2022-10-11T20:24:06.286Z,97.38
2022-10-11T20:26:34.466Z,97.62
2022-10-11T20:29:01.144Z,98.05
2022-10-11T20:31:28.469Z,98.08
2022-10-11T20:33:56.069Z,98.20
2022-10-11T20:36:23.314Z,98.42
2022-10-11T20:38:50.225Z,97.70
2022-10-11T20:41:20.808Z,98.14
2022-10-11T20:43:48.962Z,98.48
2022-10-11T20:46:23.123Z,98.37
2022-10-11T20:48:58.899Z,98.53
2022-10-11T20:51:29.278Z,98.05
2022-10-11T20:53:55.896Z,97.92
2022-10-11T20:56:22.604Z,98.32
2022-10-11T20:58:52.828Z,97.98
2022-10-11T21:01:23.494Z,97.87
2022-10-11T21:03:50.181Z,98.00
2022-10-11T21:06:16.763Z,98.58
2022-10-11T21:08:43.380Z,98.43
2022-10-11T21:11:10.182Z,98.04
2022-10-11T21:13:36.868Z,98.85
2022-10-11T21:16:13.485Z,98.02
2022-10-11T21:18:40.166Z,97.85
2022-10-11T21:21:07.278Z,98.43
2022-10-11T21:23:34.064Z,99.27
2022-10-11T21:26:02.381Z,98.14
2022-10-11T21:28:29.042Z,98.94
2022-10-11T21:30:55.641Z,98.17
2022-10-11T21:33:22.240Z,99.17
2022-10-11T21:35:48.962Z,98.27
2022-10-11T21:38:15.538Z,98.21
2022-10-11T21:40:42.144Z,98.80
2022-10-11T21:43:08.688Z,98.86
2022-10-11T21:45:39.170Z,98.53
2022-10-11T21:48:06.204Z,98.28
2022-10-11T21:50:32.823Z,98.75
2022-10-11T21:52:59.492Z,98.59
2022-10-11T21:55:26.693Z,98.33
2022-10-11T21:57:53.355Z,98.73
2022-10-11T22:00:20.201Z,99.53
2022-10-11T22:02:46.831Z,99.49
2022-10-11T22:05:13.429Z,99.86
2022-10-11T22:07:40.044Z,99.84
2022-10-11T22:10:06.675Z,98.97
2022-10-11T22:12:33.501Z,99.08
2022-10-11T22:15:00.426Z,98.83
2022-10-11T22:17:27.004Z,99.08
2022-10-11T22:19:53.666Z,99.91
2022-10-11T22:22:20.214Z,99.73
2022-10-11T22:24:47.079Z,99.76
2022-10-11T22:27:13.746Z,99.85
2022-10-11T22:29:40.442Z,99.95
2022-10-11T22:32:07.079Z,99.55
2022-10-11T22:34:33.756Z,99.76
2022-10-11T22:37:00.438Z,99.64
2022-10-11T22:39:26.972Z,99.61
2022-10-11T22:41:54.068Z,99.66
2022-10-11T22:44:20.914Z,99.88
2022-10-11T22:46:47.456Z,100.00
2022-10-11T22:49:14.046Z,100.00
2022-10-11T22:51:40.571Z,100.00
2022-10-11T22:54:07.134Z,100.00
2022-10-11T22:56:34.027Z,99.85
2022-10-11T22:59:00.635Z,100.00
2022-10-11T23:01:27.341Z,100.00
2022-10-11T23:03:54.035Z,99.87
2022-10-11T23:06:20.678Z,100.00
2022-10-11T23:08:47.336Z,100.00
2022-10-11T23:11:13.921Z,100.00
2022-10-11T23:13:40.534Z,99.88
2022-10-11T23:16:08.454Z,99.70
2022-10-11T23:18:35.101Z,100.00
2022-10-11T23:21:01.792Z,100.00
2022-10-11T23:23:28.557Z,100.00
2022-10-11T23:26:02.174Z,100.00
2022-10-11T23:28:29.093Z,100.00
2022-10-11T23:30:55.696Z,100.00
2022-10-11T23:33:22.316Z,100.00
2022-10-11T23:35:48.943Z,100.00
2022-10-11T23:38:15.632Z,100.00
2022-10-11T23:40:42.443Z,100.00
2022-10-11T23:43:09.122Z,100.00
2022-10-11T23:45:35.815Z,100.00
2022-10-11T23:48:02.473Z,100.00
2022-10-11T23:50:29.087Z,100.00
2022-10-11T23:52:55.755Z,100.00
2022-10-11T23:55:23.936Z,100.00
2022-10-11T23:57:50.565Z,100.00
